sensor_id;sensor_type;location;lat;lon;timestamp;P1;durP1;ratioP1;P2;durP2;ratioP2
22107;SDS011;11220;48.812;9.128;2023-08-30T00:02:23;0.10;;;0.10;;
22107;SDS011;11220;48.812;9.128;2023-08-30T00:04:48;0.10;;;0.10;;
22107;SDS011;11220;48.812;9.128;2023-08-30T00:07:14;0.10;;;0.10;;
22107;SDS011;11220;48.812;9.128;2023-08-30T00:09:40;0.22;;;0.00;;
22107;SDS011;11220;48.812;9.128;2023-08-30T00:12:05;0.10;;;0.10;;
22107;SDS011;11220;48.812;9.128;2023-08-30T00:14:31;0.10;;;0.10;;
22107;SDS011;11220;48.812;9.128;2023-08-30T00:16:57;0.10;;;0.10;;
22107;SDS011;11220;48.812;9.128;2023-08-30T00:19:23;0.10;;;0.10;;
22107;SDS011;11220;48.812;9.128;2023-08-30T00:21:48;0.35;;;0.10;;
22107;SDS011;11220;48.812;9.128;2023-08-30T00:24:14;0.10;;;0.10;;
22107;SDS011;11220;48.812;9.128;2023-08-30T00:26:39;0.10;;;0.10;;
22107;SDS011;11220;48.812;9.128;2023-08-30T00:29:05;0.10;;;0.10;;
22107;SDS011;11220;48.812;9.128;2023-08-30T00:31:30;0.10;;;0.10;;
22107;SDS011;11220;48.812;9.128;2023-08-30T00:33:56;0.10;;;0.10;;
22107;SDS011;11220;48.812;9.128;2023-08-30T00:36:21;0.10;;;0.10;;
22107;SDS011;11220;48.812;9.128;2023-08-30T00:38:47;0.20;;;0.20;;
22107;SDS011;11220;48.812;9.128;2023-08-30T00:41:12;0.10;;;0.10;;
22107;SDS011;11220;48.812;9.128;2023-08-30T00:43:38;0.10;;;0.10;;
22107;SDS011;11220;48.812;9.128;2023-08-30T00:46:04;0.20;;;0.10;;
22107;SDS011;11220;48.812;9.128;2023-08-30T00:48:29;0.10;;;0.10;;
22107;SDS011;11220;48.812;9.128;2023-08-30T00:50:55;0.10;;;0.10;;
22107;SDS011;11220;48.812;9.128;2023-08-30T00:53:20;0.10;;;0.10;;
22107;SDS011;11220;48.812;9.128;2023-08-30T00:55:46;0.10;;;0.10;;
22107;SDS011;11220;48.812;9.128;2023-08-30T00:58:12;0.10;;;0.10;;
22107;SDS011;11220;48.812;9.128;2023-08-30T01:00:38;0.10;;;0.10;;
22107;SDS011;11220;48.812;9.128;2023-08-30T01:03:05;0.10;;;0.10;;
22107;SDS011;11220;48.812;9.128;2023-08-30T01:05:32;0.10;;;0.10;;
22107;SDS011;11220;48.812;9.128;2023-08-30T01:07:58;0.00;;;0.00;;
22107;SDS011;11220;48.812;9.128;2023-08-30T01:10:26;0.10;;;0.10;;
22107;SDS011;11220;48.812;9.128;2023-08-30T01:13:03;0.10;;;0.10;;
22107;SDS011;11220;48.812;9.128;2023-08-30T01:15:34;0.10;;;0.10;;
22107;SDS011;11220;48.812;9.128;2023-08-30T01:18:02;0.00;;;0.00;;
22107;SDS011;11220;48.812;9.128;2023-08-30T01:20:30;0.10;;;0.10;;
22107;SDS011;11220;48.812;9.128;2023-08-30T01:23:06;0.10;;;0.10;;
22107;SDS011;11220;48.812;9.128;2023-08-30T01:25:55;0.10;;;0.10;;
22107;SDS011;11220;48.812;9.128;2023-08-30T01:28:29;0.10;;;0.10;;
22107;SDS011;11220;48.812;9.128;2023-08-30T01:30:56;0.15;;;0.15;;
22107;SDS011;11220;48.812;9.128;2023-08-30T01:33:23;0.10;;;0.10;;
22107;SDS011;11220;48.812;9.128;2023-08-30T01:35:53;0.10;;;0.10;;
22107;SDS011;11220;48.812;9.128;2023-08-30T01:38:20;0.20;;;0.17;;
22107;SDS011;11220;48.812;9.128;2023-08-30T01:40:47;0.00;;;0.00;;
22107;SDS011;11220;48.812;9.128;2023-08-30T01:43:13;0.10;;;0.10;;
22107;SDS011;11220;48.812;9.128;2023-08-30T01:45:41;0.15;;;0.15;;
22107;SDS011;11220;48.812;9.128;2023-08-30T01:48:10;0.10;;;0.10;;
22107;SDS011;11220;48.812;9.128;2023-08-30T01:50:41;0.10;;;0.10;;
22107;SDS011;11220;48.812;9.128;2023-08-30T01:53:08;0.10;;;0.10;;
22107;SDS011;11220;48.812;9.128;2023-08-30T01:55:35;0.10;;;0.10;;
22107;SDS011;11220;48.812;9.128;2023-08-30T01:58:01;0.10;;;0.10;;
22107;SDS011;11220;48.812;9.128;2023-08-30T02:00:27;0.13;;;0.13;;
22107;SDS011;11220;48.812;9.128;2023-08-30T02:02:53;0.10;;;0.10;;
22107;SDS011;11220;48.812;9.128;2023-08-30T02:05:19;0.10;;;0.10;;
22107;SDS011;11220;48.812;9.128;2023-08-30T02:07:54;0.10;;;0.10;;
22107;SDS011;11220;48.812;9.128;2023-08-30T02:10:28;0.13;;;0.13;;
22107;SDS011;11220;48.812;9.128;2023-08-30T02:12:56;0.10;;;0.10;;
22107;SDS011;11220;48.812;9.128;2023-08-30T02:15:24;0.10;;;0.10;;
22107;SDS011;11220;48.812;9.128;2023-08-30T02:17:51;0.10;;;0.10;;
22107;SDS011;11220;48.812;9.128;2023-08-30T02:20:17;0.10;;;0.10;;
22107;SDS011;11220;48.812;9.128;2023-08-30T02:22:43;0.00;;;0.00;;
22107;SDS011;11220;48.812;9.128;2023-08-30T02:25:09;0.10;;;0.10;;
22107;SDS011;11220;48.812;9.128;2023-08-30T02:27:35;0.10;;;0.10;;
22107;SDS011;11220;48.812;9.128;2023-08-30T02:30:01;0.10;;;0.10;;
22107;SDS011;11220;48.812;9.128;2023-08-30T02:32:27;0.10;;;0.10;;
22107;SDS011;11220;48.812;9.128;2023-08-30T02:34:53;0.10;;;0.10;;
22107;SDS011;11220;48.812;9.128;2023-08-30T02:37:19;0.10;;;0.10;;
22107;SDS011;11220;48.812;9.128;2023-08-30T02:39:44;0.10;;;0.10;;
22107;SDS011;11220;48.812;9.128;2023-08-30T02:42:10;0.10;;;0.10;;
22107;SDS011;11220;48.812;9.128;2023-08-30T02:44:35;0.10;;;0.10;;
22107;SDS011;11220;48.812;9.128;2023-08-30T02:47:01;0.10;;;0.10;;
22107;SDS011;11220;48.812;9.128;2023-08-30T02:49:26;0.10;;;0.10;;
22107;SDS011;11220;48.812;9.128;2023-08-30T02:51:52;0.10;;;0.10;;
22107;SDS011;11220;48.812;9.128;2023-08-30T02:54:17;0.00;;;0.00;;
22107;SDS011;11220;48.812;9.128;2023-08-30T02:56:43;0.13;;;0.13;;
22107;SDS011;11220;48.812;9.128;2023-08-30T02:59:09;0.10;;;0.10;;
22107;SDS011;11220;48.812;9.128;2023-08-30T03:01:35;0.10;;;0.10;;
22107;SDS011;11220;48.812;9.128;2023-08-30T03:04:01;0.10;;;0.10;;
22107;SDS011;11220;48.812;9.128;2023-08-30T03:06:28;0.10;;;0.10;;
22107;SDS011;11220;48.812;9.128;2023-08-30T03:08:54;0.10;;;0.10;;
22107;SDS011;11220;48.812;9.128;2023-08-30T03:11:19;0.10;;;0.10;;
22107;SDS011;11220;48.812;9.128;2023-08-30T03:13:45;0.10;;;0.10;;
22107;SDS011;11220;48.812;9.128;2023-08-30T03:16:14;0.10;;;0.10;;
22107;SDS011;11220;48.812;9.128;2023-08-30T03:18:40;0.10;;;0.10;;
22107;SDS011;11220;48.812;9.128;2023-08-30T03:21:07;0.00;;;0.00;;
22107;SDS011;11220;48.812;9.128;2023-08-30T03:23:32;0.10;;;0.10;;
22107;SDS011;11220;48.812;9.128;2023-08-30T03:25:59;0.10;;;0.10;;
22107;SDS011;11220;48.812;9.128;2023-08-30T03:28:25;0.10;;;0.10;;
22107;SDS011;11220;48.812;9.128;2023-08-30T03:30:52;0.00;;;0.00;;
22107;SDS011;11220;48.812;9.128;2023-08-30T03:33:17;0.05;;;0.05;;
22107;SDS011;11220;48.812;9.128;2023-08-30T03:35:43;0.00;;;0.00;;
22107;SDS011;11220;48.812;9.128;2023-08-30T03:38:08;0.10;;;0.10;;
22107;SDS011;11220;48.812;9.128;2023-08-30T03:40:34;0.10;;;0.10;;
22107;SDS011;11220;48.812;9.128;2023-08-30T03:43:00;0.00;;;0.00;;
22107;SDS011;11220;48.812;9.128;2023-08-30T03:45:25;0.10;;;0.10;;
22107;SDS011;11220;48.812;9.128;2023-08-30T03:47:51;0.10;;;0.10;;
22107;SDS011;11220;48.812;9.128;2023-08-30T03:50:17;0.10;;;0.10;;
22107;SDS011;11220;48.812;9.128;2023-08-30T03:52:42;0.08;;;0.08;;
22107;SDS011;11220;48.812;9.128;2023-08-30T03:55:08;0.10;;;0.10;;
22107;SDS011;11220;48.812;9.128;2023-08-30T03:57:33;0.00;;;0.00;;
22107;SDS011;11220;48.812;9.128;2023-08-30T03:59:59;0.10;;;0.10;;
22107;SDS011;11220;48.812;9.128;2023-08-30T04:02:25;0.10;;;0.10;;
22107;SDS011;11220;48.812;9.128;2023-08-30T04:04:50;0.10;;;0.10;;
22107;SDS011;11220;48.812;9.128;2023-08-30T04:07:16;0.10;;;0.10;;
22107;SDS011;11220;48.812;9.128;2023-08-30T04:09:41;0.10;;;0.10;;
22107;SDS011;11220;48.812;9.128;2023-08-30T04:12:07;0.10;;;0.10;;
22107;SDS011;11220;48.812;9.128;2023-08-30T04:14:32;0.10;;;0.10;;
22107;SDS011;11220;48.812;9.128;2023-08-30T04:16:59;0.10;;;0.10;;
22107;SDS011;11220;48.812;9.128;2023-08-30T04:19:24;0.00;;;0.00;;
22107;SDS011;11220;48.812;9.128;2023-08-30T04:21:50;0.10;;;0.10;;
22107;SDS011;11220;48.812;9.128;2023-08-30T04:24:15;0.20;;;0.20;;
22107;SDS011;11220;48.812;9.128;2023-08-30T04:26:41;0.00;;;0.00;;
22107;SDS011;11220;48.812;9.128;2023-08-30T04:29:06;0.10;;;0.10;;
22107;SDS011;11220;48.812;9.128;2023-08-30T04:31:33;0.20;;;0.10;;
22107;SDS011;11220;48.812;9.128;2023-08-30T04:33:59;0.10;;;0.10;;
22107;SDS011;11220;48.812;9.128;2023-08-30T04:36:25;0.00;;;0.00;;
22107;SDS011;11220;48.812;9.128;2023-08-30T04:38:50;0.10;;;0.10;;
22107;SDS011;11220;48.812;9.128;2023-08-30T04:41:16;0.10;;;0.10;;
22107;SDS011;11220;48.812;9.128;2023-08-30T04:43:41;0.00;;;0.00;;
22107;SDS011;11220;48.812;9.128;2023-08-30T04:46:07;0.10;;;0.10;;
22107;SDS011;11220;48.812;9.128;2023-08-30T04:48:32;0.10;;;0.10;;
22107;SDS011;11220;48.812;9.128;2023-08-30T04:51:01;0.05;;;0.05;;
22107;SDS011;11220;48.812;9.128;2023-08-30T04:53:28;0.10;;;0.10;;
22107;SDS011;11220;48.812;9.128;2023-08-30T04:55:54;0.00;;;0.00;;
22107;SDS011;11220;48.812;9.128;2023-08-30T04:58:20;0.10;;;0.08;;
22107;SDS011;11220;48.812;9.128;2023-08-30T05:00:46;0.05;;;0.05;;
22107;SDS011;11220;48.812;9.128;2023-08-30T05:03:11;0.00;;;0.00;;
22107;SDS011;11220;48.812;9.128;2023-08-30T05:05:37;0.10;;;0.10;;
22107;SDS011;11220;48.812;9.128;2023-08-30T05:08:03;0.10;;;0.10;;
22107;SDS011;11220;48.812;9.128;2023-08-30T05:10:29;0.13;;;0.10;;
22107;SDS011;11220;48.812;9.128;2023-08-30T05:12:54;0.00;;;0.00;;
22107;SDS011;11220;48.812;9.128;2023-08-30T05:15:20;0.17;;;0.10;;
22107;SDS011;11220;48.812;9.128;2023-08-30T05:17:46;0.10;;;0.10;;
22107;SDS011;11220;48.812;9.128;2023-08-30T05:20:12;0.10;;;0.10;;
22107;SDS011;11220;48.812;9.128;2023-08-30T05:22:37;0.00;;;0.00;;
22107;SDS011;11220;48.812;9.128;2023-08-30T05:25:03;0.10;;;0.10;;
22107;SDS011;11220;48.812;9.128;2023-08-30T05:27:29;0.10;;;0.10;;
22107;SDS011;11220;48.812;9.128;2023-08-30T05:29:55;0.08;;;0.08;;
22107;SDS011;11220;48.812;9.128;2023-08-30T05:32:23;0.10;;;0.10;;
22107;SDS011;11220;48.812;9.128;2023-08-30T05:34:49;0.10;;;0.10;;
22107;SDS011;11220;48.812;9.128;2023-08-30T05:37:14;0.08;;;0.08;;
22107;SDS011;11220;48.812;9.128;2023-08-30T05:39:40;0.10;;;0.10;;
22107;SDS011;11220;48.812;9.128;2023-08-30T05:42:05;0.00;;;0.00;;
22107;SDS011;11220;48.812;9.128;2023-08-30T05:44:31;0.00;;;0.00;;
22107;SDS011;11220;48.812;9.128;2023-08-30T05:46:56;0.13;;;0.10;;
22107;SDS011;11220;48.812;9.128;2023-08-30T05:49:22;0.10;;;0.10;;
22107;SDS011;11220;48.812;9.128;2023-08-30T05:51:48;0.10;;;0.10;;
22107;SDS011;11220;48.812;9.128;2023-08-30T05:54:13;0.10;;;0.10;;
22107;SDS011;11220;48.812;9.128;2023-08-30T05:56:39;0.10;;;0.10;;
22107;SDS011;11220;48.812;9.128;2023-08-30T05:59:04;0.10;;;0.10;;
22107;SDS011;11220;48.812;9.128;2023-08-30T06:01:30;0.10;;;0.10;;
22107;SDS011;11220;48.812;9.128;2023-08-30T06:03:55;0.10;;;0.10;;
22107;SDS011;11220;48.812;9.128;2023-08-30T06:06:21;0.08;;;0.08;;
22107;SDS011;11220;48.812;9.128;2023-08-30T06:08:47;0.10;;;0.10;;
22107;SDS011;11220;48.812;9.128;2023-08-30T06:11:12;0.10;;;0.10;;
22107;SDS011;11220;48.812;9.128;2023-08-30T06:13:39;0.15;;;0.13;;
22107;SDS011;11220;48.812;9.128;2023-08-30T06:16:04;0.05;;;0.05;;
22107;SDS011;11220;48.812;9.128;2023-08-30T06:18:30;0.00;;;0.00;;
22107;SDS011;11220;48.812;9.128;2023-08-30T06:20:57;0.10;;;0.10;;
22107;SDS011;11220;48.812;9.128;2023-08-30T06:23:22;0.03;;;0.03;;
22107;SDS011;11220;48.812;9.128;2023-08-30T06:25:57;0.10;;;0.10;;
22107;SDS011;11220;48.812;9.128;2023-08-30T06:28:23;0.35;;;0.10;;
22107;SDS011;11220;48.812;9.128;2023-08-30T06:30:49;0.03;;;0.03;;
22107;SDS011;11220;48.812;9.128;2023-08-30T06:33:15;0.10;;;0.10;;
22107;SDS011;11220;48.812;9.128;2023-08-30T06:35:41;0.10;;;0.10;;
22107;SDS011;11220;48.812;9.128;2023-08-30T06:38:07;0.10;;;0.10;;
22107;SDS011;11220;48.812;9.128;2023-08-30T06:40:33;0.10;;;0.10;;
22107;SDS011;11220;48.812;9.128;2023-08-30T06:42:58;0.10;;;0.10;;
22107;SDS011;11220;48.812;9.128;2023-08-30T06:45:24;0.10;;;0.10;;
22107;SDS011;11220;48.812;9.128;2023-08-30T06:47:49;0.10;;;0.10;;
22107;SDS011;11220;48.812;9.128;2023-08-30T06:50:16;0.10;;;0.10;;
22107;SDS011;11220;48.812;9.128;2023-08-30T06:52:42;0.08;;;0.00;;
22107;SDS011;11220;48.812;9.128;2023-08-30T06:55:08;0.13;;;0.13;;
22107;SDS011;11220;48.812;9.128;2023-08-30T06:57:34;0.00;;;0.00;;
22107;SDS011;11220;48.812;9.128;2023-08-30T06:59:59;0.10;;;0.10;;
22107;SDS011;11220;48.812;9.128;2023-08-30T07:02:32;0.10;;;0.10;;
22107;SDS011;11220;48.812;9.128;2023-08-30T07:07:29;0.10;;;0.10;;
22107;SDS011;11220;48.812;9.128;2023-08-30T07:09:54;0.10;;;0.10;;
22107;SDS011;11220;48.812;9.128;2023-08-30T07:12:20;0.10;;;0.10;;
22107;SDS011;11220;48.812;9.128;2023-08-30T07:14:46;0.10;;;0.10;;
22107;SDS011;11220;48.812;9.128;2023-08-30T07:17:12;0.10;;;0.10;;
22107;SDS011;11220;48.812;9.128;2023-08-30T07:19:38;0.10;;;0.10;;
22107;SDS011;11220;48.812;9.128;2023-08-30T07:22:03;0.03;;;0.03;;
22107;SDS011;11220;48.812;9.128;2023-08-30T07:24:29;0.03;;;0.03;;
22107;SDS011;11220;48.812;9.128;2023-08-30T07:26:55;0.10;;;0.10;;
22107;SDS011;11220;48.812;9.128;2023-08-30T07:29:20;0.10;;;0.10;;
22107;SDS011;11220;48.812;9.128;2023-08-30T07:31:46;0.03;;;0.03;;
22107;SDS011;11220;48.812;9.128;2023-08-30T07:34:12;0.10;;;0.10;;
22107;SDS011;11220;48.812;9.128;2023-08-30T07:36:38;0.10;;;0.10;;
22107;SDS011;11220;48.812;9.128;2023-08-30T07:39:03;0.10;;;0.10;;
22107;SDS011;11220;48.812;9.128;2023-08-30T07:41:29;0.10;;;0.10;;
22107;SDS011;11220;48.812;9.128;2023-08-30T07:43:55;0.10;;;0.10;;
22107;SDS011;11220;48.812;9.128;2023-08-30T07:46:20;0.20;;;0.13;;
22107;SDS011;11220;48.812;9.128;2023-08-30T07:48:46;0.10;;;0.10;;
22107;SDS011;11220;48.812;9.128;2023-08-30T07:51:11;0.10;;;0.10;;
22107;SDS011;11220;48.812;9.128;2023-08-30T07:53:37;0.10;;;0.10;;
22107;SDS011;11220;48.812;9.128;2023-08-30T07:56:02;0.10;;;0.10;;
22107;SDS011;11220;48.812;9.128;2023-08-30T07:58:28;0.10;;;0.10;;
22107;SDS011;11220;48.812;9.128;2023-08-30T08:00:53;0.20;;;0.20;;
22107;SDS011;11220;48.812;9.128;2023-08-30T08:03:20;0.10;;;0.10;;
22107;SDS011;11220;48.812;9.128;2023-08-30T08:05:46;0.25;;;0.25;;
22107;SDS011;11220;48.812;9.128;2023-08-30T08:08:12;0.10;;;0.10;;
22107;SDS011;11220;48.812;9.128;2023-08-30T08:10:39;0.28;;;0.20;;
22107;SDS011;11220;48.812;9.128;2023-08-30T08:13:05;0.20;;;0.20;;
22107;SDS011;11220;48.812;9.128;2023-08-30T08:15:30;0.20;;;0.20;;
22107;SDS011;11220;48.812;9.128;2023-08-30T08:17:57;0.20;;;0.20;;
22107;SDS011;11220;48.812;9.128;2023-08-30T08:20:22;0.15;;;0.15;;
22107;SDS011;11220;48.812;9.128;2023-08-30T08:22:48;0.20;;;0.20;;
22107;SDS011;11220;48.812;9.128;2023-08-30T08:25:13;0.20;;;0.20;;
22107;SDS011;11220;48.812;9.128;2023-08-30T08:27:39;0.15;;;0.15;;
22107;SDS011;11220;48.812;9.128;2023-08-30T08:30:05;0.10;;;0.10;;
22107;SDS011;11220;48.812;9.128;2023-08-30T08:32:31;0.10;;;0.10;;
22107;SDS011;11220;48.812;9.128;2023-08-30T08:34:58;0.17;;;0.10;;
22107;SDS011;11220;48.812;9.128;2023-08-30T08:37:23;0.20;;;0.20;;
22107;SDS011;11220;48.812;9.128;2023-08-30T08:39:49;0.15;;;0.15;;
22107;SDS011;11220;48.812;9.128;2023-08-30T08:42:18;0.10;;;0.10;;
22107;SDS011;11220;48.812;9.128;2023-08-30T08:44:46;0.20;;;0.20;;
22107;SDS011;11220;48.812;9.128;2023-08-30T08:47:14;0.10;;;0.10;;
22107;SDS011;11220;48.812;9.128;2023-08-30T08:49:41;0.20;;;0.20;;
22107;SDS011;11220;48.812;9.128;2023-08-30T08:52:07;0.20;;;0.20;;
22107;SDS011;11220;48.812;9.128;2023-08-30T08:54:33;0.20;;;0.20;;
22107;SDS011;11220;48.812;9.128;2023-08-30T08:56:59;0.10;;;0.10;;
22107;SDS011;11220;48.812;9.128;2023-08-30T08:59:27;0.20;;;0.20;;
22107;SDS011;11220;48.812;9.128;2023-08-30T09:01:53;0.20;;;0.20;;
22107;SDS011;11220;48.812;9.128;2023-08-30T09:04:18;0.20;;;0.20;;
22107;SDS011;11220;48.812;9.128;2023-08-30T09:06:45;0.25;;;0.10;;
22107;SDS011;11220;48.812;9.128;2023-08-30T09:09:10;0.10;;;0.10;;
22107;SDS011;11220;48.812;9.128;2023-08-30T09:11:36;0.20;;;0.20;;
22107;SDS011;11220;48.812;9.128;2023-08-30T09:14:02;0.20;;;0.20;;
22107;SDS011;11220;48.812;9.128;2023-08-30T09:16:28;0.20;;;0.15;;
22107;SDS011;11220;48.812;9.128;2023-08-30T09:18:59;0.20;;;0.20;;
22107;SDS011;11220;48.812;9.128;2023-08-30T09:21:26;0.20;;;0.20;;
22107;SDS011;11220;48.812;9.128;2023-08-30T09:26:25;0.20;;;0.20;;
22107;SDS011;11220;48.812;9.128;2023-08-30T09:28:53;0.20;;;0.20;;
22107;SDS011;11220;48.812;9.128;2023-08-30T09:31:19;0.20;;;0.20;;
22107;SDS011;11220;48.812;9.128;2023-08-30T09:33:45;0.20;;;0.20;;
22107;SDS011;11220;48.812;9.128;2023-08-30T09:36:13;0.20;;;0.20;;
22107;SDS011;11220;48.812;9.128;2023-08-30T09:38:38;0.30;;;0.22;;
22107;SDS011;11220;48.812;9.128;2023-08-30T09:41:04;0.22;;;0.20;;
22107;SDS011;11220;48.812;9.128;2023-08-30T09:43:31;0.17;;;0.17;;
22107;SDS011;11220;48.812;9.128;2023-08-30T09:45:58;0.20;;;0.20;;
22107;SDS011;11220;48.812;9.128;2023-08-30T09:48:28;0.20;;;0.20;;
22107;SDS011;11220;48.812;9.128;2023-08-30T09:50:54;0.32;;;0.32;;
22107;SDS011;11220;48.812;9.128;2023-08-30T09:53:25;0.20;;;0.20;;
22107;SDS011;11220;48.812;9.128;2023-08-30T09:55:53;0.20;;;0.20;;
22107;SDS011;11220;48.812;9.128;2023-08-30T09:58:20;0.20;;;0.20;;
22107;SDS011;11220;48.812;9.128;2023-08-30T10:00:48;0.10;;;0.10;;
22107;SDS011;11220;48.812;9.128;2023-08-30T10:03:14;0.10;;;0.10;;
22107;SDS011;11220;48.812;9.128;2023-08-30T10:05:42;0.20;;;0.20;;
22107;SDS011;11220;48.812;9.128;2023-08-30T10:08:08;0.10;;;0.10;;
22107;SDS011;11220;48.812;9.128;2023-08-30T10:10:36;0.20;;;0.20;;
22107;SDS011;11220;48.812;9.128;2023-08-30T10:13:04;0.30;;;0.30;;
22107;SDS011;11220;48.812;9.128;2023-08-30T10:15:31;0.22;;;0.20;;
22107;SDS011;11220;48.812;9.128;2023-08-30T10:17:59;0.30;;;0.20;;
22107;SDS011;11220;48.812;9.128;2023-08-30T10:20:28;0.17;;;0.17;;
22107;SDS011;11220;48.812;9.128;2023-08-30T10:22:53;0.10;;;0.10;;
22107;SDS011;11220;48.812;9.128;2023-08-30T10:25:22;0.20;;;0.20;;
22107;SDS011;11220;48.812;9.128;2023-08-30T10:27:51;0.20;;;0.20;;
22107;SDS011;11220;48.812;9.128;2023-08-30T10:30:19;0.20;;;0.20;;
22107;SDS011;11220;48.812;9.128;2023-08-30T10:32:46;0.20;;;0.20;;
22107;SDS011;11220;48.812;9.128;2023-08-30T10:35:12;0.10;;;0.10;;
22107;SDS011;11220;48.812;9.128;2023-08-30T10:37:39;0.10;;;0.10;;
22107;SDS011;11220;48.812;9.128;2023-08-30T10:40:05;0.17;;;0.17;;
22107;SDS011;11220;48.812;9.128;2023-08-30T10:42:31;0.20;;;0.20;;
22107;SDS011;11220;48.812;9.128;2023-08-30T10:45:01;0.22;;;0.22;;
22107;SDS011;11220;48.812;9.128;2023-08-30T10:47:31;0.20;;;0.20;;
22107;SDS011;11220;48.812;9.128;2023-08-30T10:52:29;0.30;;;0.30;;
22107;SDS011;11220;48.812;9.128;2023-08-30T10:58:00;0.30;;;0.30;;
22107;SDS011;11220;48.812;9.128;2023-08-30T11:00:28;0.30;;;0.30;;
22107;SDS011;11220;48.812;9.128;2023-08-30T11:02:54;0.25;;;0.22;;
22107;SDS011;11220;48.812;9.128;2023-08-30T11:05:21;0.30;;;0.20;;
22107;SDS011;11220;48.812;9.128;2023-08-30T11:07:48;0.30;;;0.30;;
22107;SDS011;11220;48.812;9.128;2023-08-30T11:10:15;0.20;;;0.20;;
22107;SDS011;11220;48.812;9.128;2023-08-30T11:12:41;0.20;;;0.20;;
22107;SDS011;11220;48.812;9.128;2023-08-30T11:15:09;0.30;;;0.30;;
22107;SDS011;11220;48.812;9.128;2023-08-30T11:17:35;0.30;;;0.30;;
22107;SDS011;11220;48.812;9.128;2023-08-30T11:20:07;0.40;;;0.30;;
22107;SDS011;11220;48.812;9.128;2023-08-30T11:22:39;0.20;;;0.20;;
22107;SDS011;11220;48.812;9.128;2023-08-30T11:25:07;0.30;;;0.30;;
22107;SDS011;11220;48.812;9.128;2023-08-30T11:27:34;0.30;;;0.30;;
22107;SDS011;11220;48.812;9.128;2023-08-30T11:30:00;0.45;;;0.40;;
22107;SDS011;11220;48.812;9.128;2023-08-30T11:32:28;0.20;;;0.20;;
22107;SDS011;11220;48.812;9.128;2023-08-30T11:37:23;0.30;;;0.30;;
22107;SDS011;11220;48.812;9.128;2023-08-30T11:39:52;0.30;;;0.20;;
22107;SDS011;11220;48.812;9.128;2023-08-30T11:42:18;0.30;;;0.30;;
22107;SDS011;11220;48.812;9.128;2023-08-30T11:44:44;0.70;;;0.70;;
22107;SDS011;11220;48.812;9.128;2023-08-30T11:47:10;0.35;;;0.35;;
22107;SDS011;11220;48.812;9.128;2023-08-30T11:49:36;0.68;;;0.20;;
22107;SDS011;11220;48.812;9.128;2023-08-30T11:52:04;0.20;;;0.20;;
22107;SDS011;11220;48.812;9.128;2023-08-30T11:54:29;0.65;;;0.32;;
22107;SDS011;11220;48.812;9.128;2023-08-30T11:56:55;0.22;;;0.22;;
22107;SDS011;11220;48.812;9.128;2023-08-30T11:59:21;0.30;;;0.30;;
22107;SDS011;11220;48.812;9.128;2023-08-30T12:01:53;0.30;;;0.30;;
22107;SDS011;11220;48.812;9.128;2023-08-30T12:04:19;0.30;;;0.30;;
22107;SDS011;11220;48.812;9.128;2023-08-30T12:06:51;0.20;;;0.20;;
22107;SDS011;11220;48.812;9.128;2023-08-30T12:09:20;0.40;;;0.40;;
22107;SDS011;11220;48.812;9.128;2023-08-30T12:11:47;0.30;;;0.30;;
22107;SDS011;11220;48.812;9.128;2023-08-30T12:14:15;0.30;;;0.30;;
22107;SDS011;11220;48.812;9.128;2023-08-30T12:16:41;0.20;;;0.20;;
22107;SDS011;11220;48.812;9.128;2023-08-30T12:19:08;0.30;;;0.30;;
22107;SDS011;11220;48.812;9.128;2023-08-30T12:21:41;0.20;;;0.20;;
22107;SDS011;11220;48.812;9.128;2023-08-30T12:24:07;0.25;;;0.25;;
22107;SDS011;11220;48.812;9.128;2023-08-30T12:28:59;0.30;;;0.30;;
22107;SDS011;11220;48.812;9.128;2023-08-30T12:31:25;0.40;;;0.30;;
22107;SDS011;11220;48.812;9.128;2023-08-30T12:33:53;0.30;;;0.30;;
22107;SDS011;11220;48.812;9.128;2023-08-30T12:36:19;0.30;;;0.30;;
22107;SDS011;11220;48.812;9.128;2023-08-30T12:38:45;0.28;;;0.28;;
22107;SDS011;11220;48.812;9.128;2023-08-30T12:41:10;0.40;;;0.40;;
22107;SDS011;11220;48.812;9.128;2023-08-30T12:43:36;0.40;;;0.40;;
22107;SDS011;11220;48.812;9.128;2023-08-30T12:46:01;0.30;;;0.30;;
22107;SDS011;11220;48.812;9.128;2023-08-30T12:48:29;0.38;;;0.30;;
22107;SDS011;11220;48.812;9.128;2023-08-30T12:50:56;0.20;;;0.20;;
22107;SDS011;11220;48.812;9.128;2023-08-30T12:53:22;0.25;;;0.25;;
22107;SDS011;11220;48.812;9.128;2023-08-30T12:55:48;0.22;;;0.22;;
22107;SDS011;11220;48.812;9.128;2023-08-30T12:58:13;0.35;;;0.35;;
22107;SDS011;11220;48.812;9.128;2023-08-30T13:00:39;0.30;;;0.30;;
22107;SDS011;11220;48.812;9.128;2023-08-30T13:03:05;0.40;;;0.40;;
22107;SDS011;11220;48.812;9.128;2023-08-30T13:05:31;0.40;;;0.30;;
22107;SDS011;11220;48.812;9.128;2023-08-30T13:07:57;0.20;;;0.20;;
22107;SDS011;11220;48.812;9.128;2023-08-30T13:10:24;0.45;;;0.38;;
22107;SDS011;11220;48.812;9.128;2023-08-30T13:12:49;0.50;;;0.50;;
22107;SDS011;11220;48.812;9.128;2023-08-30T13:15:15;1.02;;;0.40;;
22107;SDS011;11220;48.812;9.128;2023-08-30T13:17:41;0.30;;;0.30;;
22107;SDS011;11220;48.812;9.128;2023-08-30T13:20:06;0.30;;;0.30;;
22107;SDS011;11220;48.812;9.128;2023-08-30T13:22:32;0.30;;;0.30;;
22107;SDS011;11220;48.812;9.128;2023-08-30T13:24:58;0.47;;;0.30;;
22107;SDS011;11220;48.812;9.128;2023-08-30T13:27:26;0.32;;;0.32;;
22107;SDS011;11220;48.812;9.128;2023-08-30T13:29:51;0.30;;;0.30;;
22107;SDS011;11220;48.812;9.128;2023-08-30T13:32:17;0.52;;;0.30;;
22107;SDS011;11220;48.812;9.128;2023-08-30T13:34:42;0.30;;;0.30;;
22107;SDS011;11220;48.812;9.128;2023-08-30T13:37:12;0.30;;;0.30;;
22107;SDS011;11220;48.812;9.128;2023-08-30T13:39:38;0.30;;;0.30;;
22107;SDS011;11220;48.812;9.128;2023-08-30T13:42:04;0.30;;;0.30;;
22107;SDS011;11220;48.812;9.128;2023-08-30T13:44:30;0.30;;;0.30;;
22107;SDS011;11220;48.812;9.128;2023-08-30T13:46:57;0.38;;;0.38;;
22107;SDS011;11220;48.812;9.128;2023-08-30T13:49:22;0.38;;;0.38;;
22107;SDS011;11220;48.812;9.128;2023-08-30T13:51:48;0.55;;;0.40;;
22107;SDS011;11220;48.812;9.128;2023-08-30T13:54:13;0.32;;;0.32;;
22107;SDS011;11220;48.812;9.128;2023-08-30T13:56:39;0.55;;;0.20;;
22107;SDS011;11220;48.812;9.128;2023-08-30T13:59:04;0.40;;;0.40;;
22107;SDS011;11220;48.812;9.128;2023-08-30T14:01:33;0.40;;;0.30;;
22107;SDS011;11220;48.812;9.128;2023-08-30T14:04:00;0.22;;;0.22;;
22107;SDS011;11220;48.812;9.128;2023-08-30T14:06:26;0.28;;;0.28;;
22107;SDS011;11220;48.812;9.128;2023-08-30T14:08:51;0.30;;;0.30;;
22107;SDS011;11220;48.812;9.128;2023-08-30T14:11:17;0.30;;;0.30;;
22107;SDS011;11220;48.812;9.128;2023-08-30T14:13:43;0.28;;;0.25;;
22107;SDS011;11220;48.812;9.128;2023-08-30T14:16:08;0.20;;;0.20;;
22107;SDS011;11220;48.812;9.128;2023-08-30T14:18:35;0.20;;;0.20;;
22107;SDS011;11220;48.812;9.128;2023-08-30T14:21:00;0.30;;;0.30;;
22107;SDS011;11220;48.812;9.128;2023-08-30T14:23:27;0.30;;;0.30;;
22107;SDS011;11220;48.812;9.128;2023-08-30T14:26:00;0.50;;;0.45;;
22107;SDS011;11220;48.812;9.128;2023-08-30T14:28:33;0.40;;;0.40;;
22107;SDS011;11220;48.812;9.128;2023-08-30T14:30:58;0.38;;;0.38;;
22107;SDS011;11220;48.812;9.128;2023-08-30T14:33:24;0.47;;;0.47;;
22107;SDS011;11220;48.812;9.128;2023-08-30T14:35:49;0.40;;;0.40;;
22107;SDS011;11220;48.812;9.128;2023-08-30T14:38:15;0.65;;;0.65;;
22107;SDS011;11220;48.812;9.128;2023-08-30T14:40:40;1.13;;;0.50;;
22107;SDS011;11220;48.812;9.128;2023-08-30T14:43:06;0.50;;;0.50;;
22107;SDS011;11220;48.812;9.128;2023-08-30T14:45:32;0.50;;;0.50;;
22107;SDS011;11220;48.812;9.128;2023-08-30T14:47:57;0.77;;;0.70;;
22107;SDS011;11220;48.812;9.128;2023-08-30T14:50:23;0.50;;;0.47;;
22107;SDS011;11220;48.812;9.128;2023-08-30T14:52:48;0.63;;;0.60;;
22107;SDS011;11220;48.812;9.128;2023-08-30T14:55:15;0.70;;;0.70;;
22107;SDS011;11220;48.812;9.128;2023-08-30T14:57:41;0.50;;;0.50;;
22107;SDS011;11220;48.812;9.128;2023-08-30T15:00:07;0.57;;;0.57;;